Time;durP1;ratioP1;P1;durP2;ratioP2;P2;SDS_P1;SDS_P2;PMS_P1;PMS_P2;Temp;Humidity;BMP_temperature;BMP_pressure;BME280_temperature;BME280_humidity;BME280_pressure;Samples;Min_cycle;Max_cycle;Signal;HPM_P1;HPM_P2
2023/10/14 00:02:08;;;;;;;11.20;8.60;;;21.90;66.60;;;;;;5014201;28;20041;-53
2023/10/14 00:04:37;;;;;;;12.77;8.77;;;21.80;67.40;;;;;;5018077;28;20073;-53
2023/10/14 00:07:08;;;;;;;10.52;8.15;;;21.60;67.70;;;;;;5014852;28;20052;-51
2023/10/14 00:09:44;;;;;;;11.05;8.40;;;21.50;68.20;;;;;;5019042;28;20053;-54
2023/10/14 00:12:14;;;;;;;12.68;8.75;;;21.30;68.20;;;;;;5020464;28;20049;-51
2023/10/14 00:14:44;;;;;;;9.27;6.55;;;21.20;68.80;;;;;;5029535;28;20107;-55
2023/10/14 00:17:18;;;;;;;11.60;7.35;;;21.00;69.00;;;;;;5030191;28;20050;-52
2023/10/14 00:19:55;;;;;;;11.88;7.65;;;21.00;68.90;;;;;;5014950;28;20049;-54
2023/10/14 00:22:26;;;;;;;9.07;7.53;;;20.90;69.20;;;;;;5018876;28;20049;-53
2023/10/14 00:24:53;;;;;;;8.57;6.35;;;20.80;69.60;;;;;;5016577;28;20036;-54
2023/10/14 00:27:24;;;;;;;13.30;6.07;;;20.70;70.00;;;;;;5021182;28;20471;-52
2023/10/14 00:30:05;;;;;;;10.90;6.78;;;20.60;69.80;;;;;;4999294;28;20038;-51
2023/10/14 00:32:32;;;;;;;7.63;5.82;;;20.60;70.30;;;;;;5004617;28;20583;-54
2023/10/14 00:34:59;;;;;;;5.78;5.20;;;20.50;70.80;;;;;;5017592;28;20492;-52
2023/10/14 00:37:32;;;;;;;9.70;5.10;;;20.50;70.70;;;;;;5017471;28;20041;-53
2023/10/14 00:40:11;;;;;;;11.23;5.13;;;20.50;70.40;;;;;;4999926;28;20053;-52
2023/10/14 00:42:41;;;;;;;7.38;4.57;;;20.50;70.40;;;;;;5017719;28;20415;-54
2023/10/14 00:45:22;;;;;;;7.57;4.82;;;20.40;70.00;;;;;;5019195;28;20443;-54
2023/10/14 00:47:49;;;;;;;7.00;5.00;;;20.40;69.90;;;;;;5016482;28;20092;-55
2023/10/14 00:52:57;;;;;;;6.97;4.68;;;20.50;69.60;;;;;;5011575;28;20038;-52
2023/10/14 00:55:27;;;;;;;5.43;4.90;;;20.50;69.40;;;;;;5017494;28;20056;-53
2023/10/14 00:57:59;;;;;;;8.40;3.65;;;20.50;69.30;;;;;;5006155;28;20045;-55
2023/10/14 01:00:38;;;;;;;6.75;3.35;;;20.60;69.20;;;;;;5003419;28;20095;-52
2023/10/14 01:03:09;;;;;;;36.92;6.90;;;20.50;70.10;;;;;;5021846;28;20056;-55
2023/10/14 01:05:39;;;;;;;8.27;3.63;;;20.50;71.70;;;;;;4994528;28;20478;-55
2023/10/14 01:08:11;;;;;;;6.85;2.40;;;20.50;72.00;;;;;;5015555;28;20069;-53
2023/10/14 01:10:39;;;;;;;3.58;2.17;;;20.40;72.30;;;;;;4994505;28;20428;-54
2023/10/14 01:13:17;;;;;;;3.95;1.67;;;20.20;72.70;;;;;;5001422;28;20046;-54
2023/10/14 01:15:47;;;;;;;0.85;0.70;;;20.00;73.30;;;;;;5009180;28;20057;-54
2023/10/14 01:18:17;;;;;;;2.45;1.10;;;19.80;73.80;;;;;;5015550;28;20136;-55
2023/10/14 01:20:46;;;;;;;1.92;0.82;;;19.70;74.40;;;;;;5013955;28;20054;-51
2023/10/14 01:23:17;;;;;;;2.28;0.50;;;19.50;74.90;;;;;;4993036;28;20141;-55
2023/10/14 01:25:47;;;;;;;1.48;0.52;;;19.40;75.10;;;;;;4994189;28;20790;-55
2023/10/14 01:28:20;;;;;;;0.88;0.40;;;19.20;75.30;;;;;;5018600;28;20048;-53
2023/10/14 01:31:31;;;;;;;0.77;0.30;;;19.10;75.70;;;;;;5002364;28;20061;-55
2023/10/14 01:33:58;;;;;;;1.30;0.20;;;19.00;76.40;;;;;;4995391;28;20038;-53
2023/10/14 01:36:32;;;;;;;0.30;0.17;;;18.80;76.00;;;;;;5005985;28;20585;-53
2023/10/14 01:39:11;;;;;;;0.30;0.20;;;18.70;76.10;;;;;;4999411;28;20038;-54
2023/10/14 01:41:40;;;;;;;0.57;0.40;;;18.60;76.60;;;;;;4997937;28;20050;-53
2023/10/14 01:44:09;;;;;;;1.13;0.93;;;18.50;76.80;;;;;;4997291;28;20050;-53
2023/10/14 01:46:39;;;;;;;1.67;0.10;;;18.40;77.20;;;;;;5013071;28;20048;-55
2023/10/14 01:49:16;;;;;;;0.88;0.10;;;18.30;77.20;;;;;;4991015;28;20137;-54
2023/10/14 01:51:43;;;;;;;1.10;0.20;;;18.20;77.40;;;;;;4994906;28;20049;-53
2023/10/14 01:54:10;;;;;;;0.93;0.10;;;18.10;77.70;;;;;;5023006;28;20050;-53
2023/10/14 01:56:40;;;;;;;4.28;0.47;;;18.00;78.00;;;;;;5009056;28;20041;-51
2023/10/14 01:59:07;;;;;;;6.03;0.38;;;17.90;78.30;;;;;;5006817;28;20459;-54
2023/10/14 02:01:41;;;;;;;0.57;0.28;;;17.80;78.70;;;;;;5006899;28;20072;-51
2023/10/14 02:04:08;;;;;;;0.23;0.10;;;17.80;79.00;;;;;;5023916;28;20056;-53
2023/10/14 02:06:43;;;;;;;1.77;0.20;;;17.70;79.30;;;;;;5005204;28;20304;-55
2023/10/14 02:09:12;;;;;;;0.63;0.20;;;17.70;79.60;;;;;;5005081;28;20057;-55
2023/10/14 02:11:39;;;;;;;0.15;0.10;;;17.70;79.70;;;;;;4999167;28;20104;-54
2023/10/14 02:14:08;;;;;;;0.38;0.20;;;17.70;79.60;;;;;;5016496;28;20140;-53
2023/10/14 02:16:43;;;;;;;1.33;0.30;;;17.70;79.90;;;;;;5023684;28;20496;-54
2023/10/14 02:19:36;;;;;;;0.30;0.30;;;17.60;80.00;;;;;;5005801;28;20061;-53
2023/10/14 02:22:09;;;;;;;0.35;0.35;;;17.60;80.10;;;;;;5023692;28;20124;-50
2023/10/14 02:24:36;;;;;;;1.33;0.77;;;17.50;80.00;;;;;;5007027;28;20132;-53
2023/10/14 02:27:11;;;;;;;3.08;1.30;;;17.50;80.20;;;;;;5008102;28;20570;-53
2023/10/14 02:29:43;;;;;;;1.50;1.40;;;17.50;80.40;;;;;;5014904;28;20096;-53
2023/10/14 02:32:12;;;;;;;1.77;1.55;;;17.40;80.60;;;;;;5004740;28;20076;-51
2023/10/14 02:34:44;;;;;;;2.10;2.00;;;17.40;80.70;;;;;;5024573;28;20133;-54
2023/10/14 02:37:13;;;;;;;;;;;17.40;80.80;;;;;;5022771;28;20419;-54
2023/10/14 02:39:50;;;;;;;1.35;1.25;;;17.50;81.60;;;;;;5013158;28;20466;-51
2023/10/14 02:42:19;;;;;;;3.55;1.73;;;17.40;80.30;;;;;;5026030;28;20115;-52
2023/10/14 02:44:54;;;;;;;2.10;1.08;;;17.30;79.90;;;;;;5024202;28;20041;-51
2023/10/14 02:47:21;;;;;;;4.53;1.20;;;17.30;79.60;;;;;;5027111;28;20113;-51
2023/10/14 02:49:53;;;;;;;1.98;1.10;;;17.20;79.50;;;;;;5023672;28;20065;-54
2023/10/14 02:52:29;;;;;;;2.78;0.88;;;17.20;79.60;;;;;;5007274;28;20045;-53
2023/10/14 02:55:19;;;;;;;1.25;0.70;;;17.10;79.90;;;;;;5022875;28;20045;-52
2023/10/14 02:57:49;;;;;;;2.95;1.27;;;17.00;80.00;;;;;;5010281;28;20055;-51
2023/10/14 03:00:32;;;;;;;4.40;1.55;;;16.90;80.10;;;;;;5019133;28;20496;-51
2023/10/14 03:03:03;;;;;;;3.78;1.00;;;16.80;80.10;;;;;;5023344;28;20040;-51
2023/10/14 03:05:50;;;;;;;3.13;1.13;;;16.80;80.20;;;;;;5003967;28;20472;-52
2023/10/14 03:08:20;;;;;;;3.35;1.02;;;16.80;80.30;;;;;;5017892;28;20104;-53
2023/10/14 03:10:55;;;;;;;3.10;1.25;;;16.70;80.50;;;;;;5016802;28;20042;-51
2023/10/14 03:13:22;;;;;;;2.40;1.30;;;16.70;80.70;;;;;;5014732;28;20077;-50
2023/10/14 03:15:52;;;;;;;3.85;1.10;;;16.60;81.00;;;;;;5025344;28;20061;-53
2023/10/14 03:18:37;;;;;;;4.47;1.17;;;16.60;81.00;;;;;;4999794;28;20049;-51
2023/10/14 03:21:09;;;;;;;8.38;2.13;;;16.50;80.70;;;;;;5019172;28;20520;-53
2023/10/14 03:23:38;;;;;;;5.78;1.30;;;16.50;80.10;;;;;;5021821;28;20140;-53
2023/10/14 03:26:13;;;;;;;6.25;1.83;;;16.50;80.20;;;;;;5010535;28;20066;-52
2023/10/14 03:28:46;;;;;;;5.47;1.65;;;16.30;80.20;;;;;;5025427;28;20041;-53
2023/10/14 03:31:17;;;;;;;4.03;1.60;;;16.30;80.20;;;;;;5022326;28;20121;-49
2023/10/14 03:33:45;;;;;;;9.52;2.00;;;16.20;80.10;;;;;;5016273;28;20048;-52
2023/10/14 03:36:18;;;;;;;7.97;2.45;;;16.20;80.20;;;;;;5018240;28;20276;-51
2023/10/14 03:38:59;;;;;;;9.07;1.75;;;16.10;80.30;;;;;;5020413;28;20107;-54
2023/10/14 03:41:37;;;;;;;4.45;1.33;;;16.00;80.60;;;;;;5017319;28;20120;-50
2023/10/14 03:44:09;;;;;;;5.53;1.10;;;16.00;81.10;;;;;;5019580;28;20888;-52
2023/10/14 03:46:46;;;;;;;5.28;1.33;;;15.90;81.20;;;;;;5021632;28;20128;-53
2023/10/14 03:49:25;;;;;;;3.25;1.33;;;15.90;81.40;;;;;;5020526;28;20068;-53
2023/10/14 03:51:56;;;;;;;8.73;1.63;;;15.90;81.40;;;;;;5021165;28;20118;-53
2023/10/14 03:54:24;;;;;;;5.07;1.67;;;15.90;81.50;;;;;;5018360;28;20048;-53
2023/10/14 03:57:03;;;;;;;5.20;1.70;;;15.80;81.50;;;;;;5001471;28;20052;-51
2023/10/14 03:59:33;;;;;;;4.15;1.20;;;15.90;81.70;;;;;;5023475;23;20049;-55
2023/10/14 04:02:07;;;;;;;4.18;1.48;;;15.80;81.90;;;;;;5002173;28;20418;-55
2023/10/14 04:04:42;;;;;;;6.70;1.42;;;15.80;81.70;;;;;;5001051;28;20488;-55
2023/10/14 04:09:37;;;;;;;3.80;1.73;;;15.80;82.20;;;;;;4988383;28;20042;-55
2023/10/14 04:12:12;;;;;;;6.85;1.83;;;15.80;81.60;;;;;;4989892;28;20046;-54
2023/10/14 04:14:44;;;;;;;7.93;2.13;;;15.80;81.60;;;;;;4974370;28;20046;-56
2023/10/14 04:17:19;;;;;;;6.57;1.08;;;15.80;81.50;;;;;;4982113;28;20121;-55
2023/10/14 04:19:47;;;;;;;2.88;1.42;;;15.70;81.50;;;;;;4995547;28;20133;-54
2023/10/14 04:22:38;;;;;;;5.68;1.40;;;15.70;81.40;;;;;;4998613;28;20046;-56
2023/10/14 04:33:17;;;;;;;4.88;1.40;;;15.60;80.80;;;;;;4997076;28;20117;-55
2023/10/14 04:38:38;;;;;;;4.82;1.55;;;15.50;80.40;;;;;;4998947;28;20558;-56
2023/10/14 04:41:13;;;;;;;4.32;1.40;;;15.50;80.20;;;;;;4999163;28;20042;-56
2023/10/14 04:44:00;;;;;;;6.88;1.67;;;15.40;80.00;;;;;;4993472;28;20062;-55
2023/10/14 04:46:46;;;;;;;6.50;1.50;;;15.30;80.00;;;;;;4990409;28;20114;-56
2023/10/14 04:49:16;;;;;;;5.90;2.20;;;15.20;80.00;;;;;;5001391;28;20047;-56
2023/10/14 04:51:45;;;;;;;6.65;1.75;;;15.20;80.00;;;;;;4999758;28;20045;-57
2023/10/14 04:54:19;;;;;;;6.43;2.13;;;15.10;80.00;;;;;;4991953;28;20503;-56
2023/10/14 04:56:57;;;;;;;6.05;2.10;;;15.10;80.00;;;;;;4982058;28;20089;-55
2023/10/14 04:59:27;;;;;;;6.47;1.70;;;15.00;80.10;;;;;;4992884;28;20038;-57
2023/10/14 05:01:56;;;;;;;5.32;1.88;;;15.00;80.20;;;;;;4999738;28;20419;-56
2023/10/14 05:04:29;;;;;;;7.15;2.72;;;14.90;80.30;;;;;;5000922;28;20427;-56
2023/10/14 05:07:03;;;;;;;7.10;2.30;;;14.80;80.30;;;;;;4983853;28;20171;-56
2023/10/14 05:09:30;;;;;;;5.85;1.73;;;14.80;80.30;;;;;;4992760;28;20111;-57
2023/10/14 05:12:00;;;;;;;5.28;1.98;;;14.80;80.30;;;;;;4993965;28;20045;-56
2023/10/14 05:14:41;;;;;;;6.03;2.08;;;14.70;80.30;;;;;;4988502;28;20057;-57
2023/10/14 05:17:14;;;;;;;7.93;2.15;;;14.70;80.30;;;;;;4986111;28;20644;-56
2023/10/14 05:19:43;;;;;;;5.72;2.15;;;14.70;80.40;;;;;;5001396;28;20041;-56
2023/10/14 05:22:13;;;;;;;8.02;2.13;;;14.60;80.40;;;;;;5000820;28;20100;-56
2023/10/14 05:24:48;;;;;;;17.98;2.67;;;14.60;80.50;;;;;;4994421;28;20050;-56
2023/10/14 05:27:19;;;;;;;8.10;2.47;;;14.60;81.20;;;;;;4985844;28;20035;-56
2023/10/14 05:29:54;;;;;;;9.63;2.38;;;14.50;80.70;;;;;;4995613;28;20052;-55
2023/10/14 05:32:26;;;;;;;5.45;2.03;;;14.50;80.80;;;;;;5002783;28;20091;-56
2023/10/14 05:34:55;;;;;;;5.93;1.98;;;14.50;80.70;;;;;;4996000;28;20314;-56
2023/10/14 05:37:22;;;;;;;12.05;1.80;;;14.50;80.60;;;;;;4991192;28;20121;-56
2023/10/14 05:39:54;;;;;;;9.60;2.25;;;14.50;80.50;;;;;;4991541;28;20050;-56
2023/10/14 05:42:21;;;;;;;11.57;2.13;;;14.40;80.50;;;;;;4987188;28;20053;-56
2023/10/14 05:45:01;;;;;;;5.03;1.67;;;14.40;80.40;;;;;;4991678;28;20037;-56
2023/10/14 05:47:28;;;;;;;7.50;1.73;;;14.40;80.40;;;;;;4991874;28;20042;-56
2023/10/14 05:49:58;;;;;;;7.60;2.03;;;14.40;80.40;;;;;;4992261;28;20142;-56
2023/10/14 05:52:25;;;;;;;9.20;1.88;;;14.30;80.30;;;;;;4990270;28;20674;-56
2023/10/14 05:54:52;;;;;;;6.22;2.10;;;14.30;80.20;;;;;;4994838;28;20045;-56
2023/10/14 05:57:20;;;;;;;7.38;2.50;;;14.30;80.20;;;;;;4984533;28;20050;-57
2023/10/14 05:59:48;;;;;;;7.47;2.20;;;14.20;80.30;;;;;;4996403;28;20050;-59
2023/10/14 06:02:19;;;;;;;8.30;3.28;;;14.20;80.40;;;;;;5002201;28;20093;-56
2023/10/14 06:04:45;;;;;;;5.20;1.83;;;14.20;80.50;;;;;;4987242;28;20049;-56
2023/10/14 06:07:15;;;;;;;7.40;1.77;;;14.20;80.50;;;;;;4993435;28;20406;-57
2023/10/14 06:09:48;;;;;;;;;;;14.20;80.50;;;;;;4984707;28;20058;-56
2023/10/14 06:12:16;;;;;;;6.82;1.80;;;14.20;80.80;;;;;;4975232;28;20392;-56
2023/10/14 06:14:47;;;;;;;6.03;2.00;;;14.20;80.10;;;;;;4981875;28;20093;-55
2023/10/14 06:17:16;;;;;;;7.95;2.38;;;14.10;80.20;;;;;;4980697;28;20049;-51
2023/10/14 06:19:45;;;;;;;6.82;2.60;;;14.10;80.90;;;;;;4987741;28;20057;-54
2023/10/14 06:22:14;;;;;;;5.80;1.70;;;14.10;80.50;;;;;;4998254;28;20066;-53
2023/10/14 06:24:47;;;;;;;5.05;2.17;;;14.00;80.60;;;;;;4981855;28;20047;-52
2023/10/14 06:27:24;;;;;;;5.18;1.60;;;14.00;80.80;;;;;;4981810;28;20126;-54
2023/10/14 06:29:56;;;;;;;6.00;2.38;;;14.00;80.80;;;;;;4996046;28;20061;-53
2023/10/14 06:32:25;;;;;;;8.80;2.13;;;14.00;80.90;;;;;;4992237;28;20137;-53
2023/10/14 06:34:59;;;;;;;7.32;2.35;;;14.00;80.80;;;;;;4983197;28;20501;-54
2023/10/14 06:37:26;;;;;;;9.57;2.17;;;14.00;80.80;;;;;;4990611;28;20528;-52
2023/10/14 06:39:56;;;;;;;10.57;2.53;;;14.00;80.80;;;;;;4997401;28;20052;-54
2023/10/14 06:42:24;;;;;;;6.20;2.42;;;14.00;80.90;;;;;;5006630;28;20319;-50
2023/10/14 06:44:51;;;;;;;6.55;2.00;;;14.00;80.90;;;;;;4992767;28;20069;-51
2023/10/14 06:47:21;;;;;;;6.32;2.70;;;14.00;81.00;;;;;;5001264;28;20420;-54
2023/10/14 06:49:49;;;;;;;10.50;3.05;;;14.00;81.20;;;;;;5002123;28;20065;-54
2023/10/14 06:52:18;;;;;;;8.02;2.38;;;14.00;81.20;;;;;;4996681;28;20124;-53
2023/10/14 06:54:45;;;;;;;6.28;2.83;;;14.00;81.30;;;;;;4975522;28;20547;-54
2023/10/14 06:57:11;;;;;;;9.02;2.10;;;13.90;81.30;;;;;;4976938;28;20061;-52
2023/10/14 06:59:38;;;;;;;9.30;2.67;;;14.00;81.30;;;;;;4983822;28;20133;-53
2023/10/14 07:02:05;;;;;;;11.13;2.38;;;14.00;81.40;;;;;;4994804;28;20054;-50
2023/10/14 07:04:40;;;;;;;11.18;2.40;;;14.00;81.40;;;;;;4985593;28;20105;-49
2023/10/14 07:07:10;;;;;;;7.30;2.72;;;14.00;81.40;;;;;;4980049;28;20121;-54
2023/10/14 07:09:44;;;;;;;8.40;3.22;;;14.00;81.40;;;;;;4983485;28;20046;-54
2023/10/14 07:12:13;;;;;;;10.77;2.97;;;14.00;81.60;;;;;;4984945;28;20049;-50
2023/10/14 07:14:44;;;;;;;9.18;2.22;;;14.00;81.60;;;;;;4981607;28;20094;-53
2023/10/14 07:17:13;;;;;;;6.03;2.70;;;14.00;81.70;;;;;;4991541;28;20047;-52
2023/10/14 07:19:39;;;;;;;8.18;2.15;;;14.10;81.80;;;;;;5006312;28;20049;-52
2023/10/14 07:22:07;;;;;;;5.57;1.92;;;14.10;81.80;;;;;;4996221;28;20047;-52
2023/10/14 07:24:38;;;;;;;6.70;2.10;;;14.10;81.70;;;;;;4984383;28;20125;-53
2023/10/14 07:27:06;;;;;;;9.32;2.90;;;14.10;81.70;;;;;;4984544;28;20594;-52
2023/10/14 07:29:32;;;;;;;9.40;2.38;;;14.10;81.80;;;;;;4997834;28;20076;-53
2023/10/14 07:32:01;;;;;;;6.75;2.70;;;14.10;81.70;;;;;;4999173;28;20095;-53
2023/10/14 07:34:28;;;;;;;8.45;2.45;;;14.10;81.70;;;;;;5006056;28;20069;-50
2023/10/14 07:36:55;;;;;;;6.18;2.47;;;14.10;81.70;;;;;;4987151;28;20606;-53
2023/10/14 07:39:27;;;;;;;7.47;2.30;;;14.10;81.60;;;;;;4994038;28;20125;-52
2023/10/14 07:41:55;;;;;;;7.30;2.25;;;14.20;81.70;;;;;;5002776;28;20049;-53
2023/10/14 07:44:25;;;;;;;5.45;2.15;;;14.20;81.80;;;;;;4992595;28;20046;-52
2023/10/14 07:46:54;;;;;;;8.93;2.10;;;14.20;81.70;;;;;;4997498;28;20112;-54
2023/10/14 07:49:21;;;;;;;12.75;2.65;;;14.20;81.80;;;;;;5005429;28;20042;-52
2023/10/14 07:51:52;;;;;;;6.70;2.20;;;14.20;81.60;;;;;;4991094;28;20557;-53
2023/10/14 07:54:19;;;;;;;8.95;2.55;;;14.30;81.70;;;;;;4984627;28;20117;-49
2023/10/14 07:56:46;;;;;;;6.35;1.88;;;14.20;81.60;;;;;;4983159;28;20046;-52
2023/10/14 07:59:14;;;;;;;6.28;1.88;;;14.30;81.50;;;;;;4987830;28;20042;-51
2023/10/14 08:01:41;;;;;;;8.60;2.40;;;14.30;81.60;;;;;;4983516;28;20557;-53
2023/10/14 08:04:14;;;;;;;8.48;2.50;;;14.30;81.60;;;;;;4978423;28;20089;-53
2023/10/14 08:06:43;;;;;;;6.72;2.35;;;14.30;81.60;;;;;;4983767;28;20051;-52
2023/10/14 08:09:24;;;;;;;12.48;2.47;;;14.30;81.60;;;;;;4992693;28;20038;-53
2023/10/14 08:11:52;;;;;;;6.18;1.83;;;14.30;81.40;;;;;;4987381;28;20042;-51
2023/10/14 08:14:19;;;;;;;8.40;2.97;;;14.30;81.20;;;;;;4988655;28;20058;-51
2023/10/14 08:16:47;;;;;;;8.63;2.33;;;14.30;81.30;;;;;;4989055;28;20125;-49
2023/10/14 08:19:14;;;;;;;7.22;2.30;;;14.40;81.30;;;;;;5002744;28;20042;-52
2023/10/14 08:21:43;;;;;;;6.47;3.05;;;14.40;81.10;;;;;;4987555;28;20428;-53
2023/10/14 08:24:14;;;;;;;5.38;2.25;;;14.40;80.90;;;;;;4994397;28;20134;-51
2023/10/14 08:26:41;;;;;;;6.82;2.67;;;14.40;80.90;;;;;;4990622;28;20042;-51
2023/10/14 08:29:12;;;;;;;7.35;2.83;;;14.40;80.80;;;;;;4987830;28;20539;-53
2023/10/14 08:31:38;;;;;;;8.93;1.98;;;14.40;80.80;;;;;;4984247;28;20121;-52
2023/10/14 08:34:07;;;;;;;8.90;2.78;;;14.40;80.80;;;;;;4988559;28;20050;-49
2023/10/14 08:36:34;;;;;;;8.63;2.30;;;14.40;80.80;;;;;;4984343;28;20917;-50
2023/10/14 08:39:00;;;;;;;7.60;1.90;;;14.40;80.80;;;;;;4988564;28;20042;-53
2023/10/14 08:41:33;;;;;;;5.25;2.42;;;14.40;80.90;;;;;;5006287;28;20061;-49
2023/10/14 08:44:08;;;;;;;8.38;3.28;;;14.40;80.80;;;;;;4993825;28;20046;-53
2023/10/14 08:46:39;;;;;;;15.90;2.95;;;14.50;80.80;;;;;;4979406;28;20765;-50
2023/10/14 08:49:09;;;;;;;6.80;2.53;;;14.50;80.70;;;;;;4988505;28;20042;-49
2023/10/14 08:51:39;;;;;;;9.73;2.40;;;14.50;80.70;;;;;;4986776;28;20857;-50
2023/10/14 08:54:23;;;;;;;8.00;2.67;;;14.50;80.70;;;;;;4982520;28;20039;-53
2023/10/14 08:56:51;;;;;;;7.65;2.00;;;14.60;80.60;;;;;;4976813;28;20047;-51
2023/10/14 08:59:18;;;;;;;11.52;2.20;;;14.60;80.50;;;;;;4984458;28;20057;-53
2023/10/14 09:01:47;;;;;;;8.40;2.03;;;14.60;80.60;;;;;;4977807;28;20055;-53
2023/10/14 09:04:35;;;;;;;7.05;2.60;;;14.60;80.60;;;;;;4978991;28;20084;-52
2023/10/14 09:07:02;;;;;;;8.30;2.42;;;14.70;80.40;;;;;;4973772;28;20475;-53
2023/10/14 09:09:32;;;;;;;6.90;2.00;;;14.70;80.20;;;;;;4997915;28;20043;-52
2023/10/14 09:12:10;;;;;;;12.05;2.75;;;14.70;79.90;;;;;;4996467;28;20496;-50
2023/10/14 09:14:39;;;;;;;9.50;2.47;;;14.70;79.90;;;;;;4990278;28;20126;-52
2023/10/14 09:17:09;;;;;;;4.82;2.47;;;14.80;79.50;;;;;;4988757;28;20488;-51
2023/10/14 09:19:48;;;;;;;5.40;1.80;;;14.70;79.00;;;;;;4988801;28;20049;-53
2023/10/14 09:22:27;;;;;;;9.40;1.90;;;14.80;79.30;;;;;;4985854;28;20125;-52
2023/10/14 09:24:58;;;;;;;7.57;2.28;;;14.80;79.30;;;;;;4983786;28;20050;-53
2023/10/14 09:27:26;;;;;;;7.13;3.15;;;14.80;78.70;;;;;;4983230;28;20050;-50
2023/10/14 09:29:57;;;;;;;7.78;2.47;;;14.80;78.40;;;;;;4986235;28;20046;-49
2023/10/14 09:32:27;;;;;;;5.88;1.48;;;14.70;78.00;;;;;;4989557;28;20034;-51
2023/10/14 09:34:55;;;;;;;12.05;2.65;;;14.80;78.60;;;;;;4989847;28;20074;-52
2023/10/14 09:37:22;;;;;;;9.48;2.17;;;14.70;78.60;;;;;;4997961;28;20073;-52
2023/10/14 09:39:51;;;;;;;6.07;2.15;;;14.80;78.70;;;;;;4999803;28;20045;-51
2023/10/14 09:42:21;;;;;;;6.55;2.22;;;14.70;78.70;;;;;;4997908;28;20524;-52
2023/10/14 09:44:49;;;;;;;7.57;1.98;;;14.80;79.10;;;;;;4985975;28;20125;-54
2023/10/14 09:47:21;;;;;;;6.82;2.45;;;14.80;78.50;;;;;;4991430;28;20042;-52
2023/10/14 09:49:50;;;;;;;8.45;2.38;;;14.80;78.10;;;;;;5002943;28;20053;-50
2023/10/14 09:52:18;;;;;;;5.90;2.20;;;14.90;77.90;;;;;;4990179;28;20073;-49
2023/10/14 09:54:49;;;;;;;9.63;2.35;;;14.90;78.00;;;;;;4980579;28;20130;-50
2023/10/14 09:57:17;;;;;;;10.45;2.10;;;15.00;77.90;;;;;;4986456;28;20074;-52
2023/10/14 10:02:27;;;;;;;10.77;2.83;;;15.00;78.10;;;;;;4996649;28;20053;-55
2023/10/14 10:05:01;;;;;;;8.50;2.30;;;15.10;77.90;;;;;;4995022;28;20046;-55
2023/10/14 10:08:09;;;;;;;5.00;1.75;;;15.20;77.90;;;;;;4987589;28;20642;-57
2023/10/14 10:10:41;;;;;;;9.18;1.98;;;15.20;78.10;;;;;;4933266;28;20553;-57
2023/10/14 10:13:12;;;;;;;9.38;2.22;;;15.30;77.40;;;;;;4984636;28;20046;-57
2023/10/14 10:15:40;;;;;;;8.02;1.85;;;15.40;76.40;;;;;;4990546;28;20038;-56
2023/10/14 10:18:12;;;;;;;9.20;2.22;;;15.40;75.30;;;;;;4982919;28;20039;-56
2023/10/14 10:20:49;;;;;;;6.90;2.15;;;15.40;74.90;;;;;;4986060;28;20046;-57
2023/10/14 10:23:16;;;;;;;8.45;2.72;;;15.50;74.60;;;;;;4986778;28;20050;-55
2023/10/14 10:25:51;;;;;;;3.92;2.03;;;15.50;74.70;;;;;;4976822;28;20077;-56
2023/10/14 10:28:27;;;;;;;4.60;1.70;;;15.60;73.90;;;;;;4977362;28;20497;-59
2023/10/14 10:31:00;;;;;;;5.72;1.55;;;15.60;72.20;;;;;;4985146;28;20101;-56
2023/10/14 10:34:01;;;;;;;5.55;1.55;;;15.70;73.50;;;;;;4966571;28;20050;-58
2023/10/14 10:36:31;;;;;;;3.63;1.27;;;15.70;71.60;;;;;;4977292;28;20070;-56
2023/10/14 10:39:15;;;;;;;8.68;2.00;;;15.80;71.60;;;;;;4974204;28;20035;-58
2023/10/14 10:41:43;;;;;;;4.28;1.50;;;15.90;69.80;;;;;;4975529;28;20043;-55
2023/10/14 10:44:12;;;;;;;8.13;2.05;;;15.90;70.70;;;;;;4958531;28;20046;-58
2023/10/14 10:46:41;;;;;;;9.32;2.47;;;15.90;69.60;;;;;;4982500;28;20409;-55
2023/10/14 10:49:11;;;;;;;6.07;1.90;;;16.00;69.20;;;;;;4988142;28;20578;-56
2023/10/14 10:51:50;;;;;;;6.90;1.67;;;16.00;68.90;;;;;;4982054;28;20034;-58
2023/10/14 10:54:22;;;;;;;6.88;1.52;;;16.00;67.70;;;;;;4981468;28;20101;-55
2023/10/14 10:56:48;;;;;;;6.73;1.70;;;16.00;67.90;;;;;;4968746;28;20078;-55
2023/10/14 10:59:36;;;;;;;4.80;1.80;;;16.10;68.30;;;;;;4984643;28;20767;-56
2023/10/14 11:02:08;;;;;;;5.72;1.60;;;16.10;68.00;;;;;;4982813;28;20046;-57
2023/10/14 11:04:41;;;;;;;6.85;1.88;;;16.20;67.20;;;;;;4967228;28;20464;-57
2023/10/14 11:07:10;;;;;;;2.85;1.27;;;16.20;67.00;;;;;;4987849;28;20571;-54
2023/10/14 11:09:41;;;;;;;5.47;1.42;;;16.30;67.10;;;;;;4976983;28;20049;-55
2023/10/14 11:12:11;;;;;;;5.03;1.95;;;16.30;64.50;;;;;;4972235;28;20047;-55
2023/10/14 11:14:41;;;;;;;4.95;1.52;;;16.40;64.50;;;;;;4969346;28;20122;-55
2023/10/14 11:17:08;;;;;;;8.52;1.92;;;16.30;65.00;;;;;;4973885;28;20074;-56
2023/10/14 11:19:36;;;;;;;3.53;1.65;;;16.30;64.90;;;;;;4957372;28;20055;-57
2023/10/14 11:22:04;;;;;;;3.78;1.23;;;16.30;64.40;;;;;;4962604;28;20073;-53
2023/10/14 11:24:35;;;;;;;6.22;1.50;;;16.40;64.20;;;;;;4976830;28;20039;-57
2023/10/14 11:27:06;;;;;;;4.75;1.25;;;16.40;64.10;;;;;;4968696;28;20051;-55
2023/10/14 11:29:34;;;;;;;7.22;1.85;;;16.50;64.50;;;;;;4957723;28;20042;-57
2023/10/14 11:32:02;;;;;;;5.82;2.30;;;16.50;64.40;;;;;;4970562;28;20063;-57
2023/10/14 11:34:41;;;;;;;3.92;1.70;;;16.60;63.40;;;;;;4970570;28;20552;-56
2023/10/14 11:37:10;;;;;;;4.90;1.27;;;16.50;62.30;;;;;;4974508;28;20449;-55
2023/10/14 11:39:37;;;;;;;5.60;1.60;;;16.60;63.10;;;;;;4955029;28;20051;-55
2023/10/14 11:42:04;;;;;;;6.35;1.33;;;16.50;63.10;;;;;;4973570;28;20520;-57
2023/10/14 11:44:31;;;;;;;4.38;1.55;;;16.50;62.80;;;;;;4970886;28;20160;-57
2023/10/14 11:46:57;;;;;;;6.93;2.17;;;16.50;62.80;;;;;;4973492;28;20066;-55
2023/10/14 11:49:25;;;;;;;5.32;1.45;;;16.40;63.00;;;;;;4974388;28;20058;-55
2023/10/14 11:51:53;;;;;;;5.43;1.40;;;16.40;62.10;;;;;;4969949;28;20516;-58
2023/10/14 11:54:23;;;;;;;7.53;1.52;;;16.30;61.20;;;;;;4971683;28;20043;-56
2023/10/14 11:56:50;;;;;;;7.47;2.50;;;16.30;60.70;;;;;;4964308;28;20066;-57
2023/10/14 11:59:17;;;;;;;5.32;1.88;;;16.30;60.60;;;;;;4966359;28;20121;-55
2023/10/14 12:01:45;;;;;;;4.88;1.60;;;16.30;60.50;;;;;;4965468;28;20035;-55
2023/10/14 12:04:14;;;;;;;6.68;1.95;;;16.20;60.50;;;;;;4968572;28;20067;-56
2023/10/14 12:06:41;;;;;;;3.10;0.93;;;16.20;60.50;;;;;;4985163;28;20034;-53
2023/10/14 12:09:11;;;;;;;5.43;1.40;;;16.20;60.80;;;;;;4977303;28;20089;-58
2023/10/14 12:11:44;;;;;;;9.45;1.67;;;16.20;60.50;;;;;;4976171;28;20113;-54
2023/10/14 12:14:14;;;;;;;4.75;1.23;;;16.20;60.80;;;;;;4969214;28;20121;-56
2023/10/14 12:16:42;;;;;;;6.43;1.52;;;16.30;61.70;;;;;;4983857;28;20133;-52
2023/10/14 12:19:14;;;;;;;5.60;1.80;;;16.40;61.30;;;;;;4979813;28;20061;-55
2023/10/14 12:21:41;;;;;;;5.45;2.20;;;16.50;61.30;;;;;;4972642;28;20046;-54
2023/10/14 12:24:09;;;;;;;6.20;1.42;;;16.60;61.60;;;;;;4979582;28;20484;-54
2023/10/14 12:26:43;;;;;;;9.63;1.80;;;16.70;60.90;;;;;;4968949;28;20508;-54
2023/10/14 12:29:11;;;;;;;6.65;1.90;;;16.70;60.10;;;;;;4975498;28;20448;-58
2023/10/14 12:31:40;;;;;;;8.15;2.75;;;16.70;59.50;;;;;;4970996;28;20051;-54
2023/10/14 12:34:09;;;;;;;7.50;2.00;;;16.70;59.50;;;;;;4979581;28;20038;-57
2023/10/14 12:36:40;;;;;;;8.27;2.15;;;16.70;59.40;;;;;;4966039;28;20054;-56
2023/10/14 12:39:19;;;;;;;5.38;1.65;;;16.70;59.60;;;;;;4965039;28;20050;-58
2023/10/14 12:41:49;;;;;;;4.78;1.63;;;16.70;59.60;;;;;;4958688;28;20071;-58
2023/10/14 12:44:17;;;;;;;5.70;1.17;;;16.70;59.80;;;;;;4973468;28;20047;-57
2023/10/14 12:46:45;;;;;;;4.85;1.23;;;16.70;59.70;;;;;;4976743;28;20046;-55
2023/10/14 12:49:17;;;;;;;5.07;1.10;;;16.70;59.30;;;;;;4978657;28;20053;-58
2023/10/14 12:51:46;;;;;;;5.78;1.40;;;16.80;60.00;;;;;;4968952;28;20117;-52
2023/10/14 12:54:19;;;;;;;7.53;1.65;;;16.80;59.40;;;;;;4971062;28;20049;-58
2023/10/14 12:56:47;;;;;;;3.88;1.20;;;16.90;59.90;;;;;;4956581;28;20102;-57
2023/10/14 12:59:14;;;;;;;6.07;1.23;;;16.90;59.30;;;;;;4972133;28;20099;-58
2023/10/14 13:01:47;;;;;;;8.18;2.67;;;16.90;59.10;;;;;;4971444;28;20454;-55
2023/10/14 13:04:16;;;;;;;4.45;1.38;;;17.00;58.90;;;;;;4968477;28;20105;-57
2023/10/14 13:06:44;;;;;;;3.53;1.13;;;17.00;59.30;;;;;;4973267;28;20038;-57
2023/10/14 13:09:12;;;;;;;4.25;1.45;;;17.00;59.80;;;;;;4969286;28;20672;-54
2023/10/14 13:11:43;;;;;;;3.83;1.17;;;17.00;60.50;;;;;;4970466;28;20034;-55
2023/10/14 13:14:11;;;;;;;4.00;1.77;;;17.20;60.10;;;;;;4971939;28;20042;-56
2023/10/14 13:16:38;;;;;;;4.85;0.95;;;17.20;59.50;;;;;;4968545;28;20070;-55
2023/10/14 13:19:06;;;;;;;6.20;1.30;;;17.30;59.90;;;;;;4972247;28;20047;-53
2023/10/14 13:21:35;;;;;;;10.52;1.60;;;17.30;59.50;;;;;;4978995;28;20049;-55
2023/10/14 13:24:06;;;;;;;5.38;1.35;;;17.40;58.70;;;;;;4981721;28;20104;-57
2023/10/14 13:26:33;;;;;;;6.30;1.40;;;17.40;59.10;;;;;;4971869;28;20097;-57